Time;durP1;ratioP1;P1;durP2;ratioP2;P2;SDS_P1;SDS_P2;PMS_P1;PMS_P2;Temp;Humidity;BMP_temperature;BMP_pressure;BME280_temperature;BME280_humidity;BME280_pressure;Samples;Min_cycle;Max_cycle;Signal;HPM_P1;HPM_P2
2022/06/09 00:00:48;;;;;;;9.50;4.10;;;;;;;17.45;63.66;100741.22;4971425;28;124620;-60
2022/06/09 00:03:25;;;;;;;11.55;3.92;;;;;;;17.43;63.72;100748.50;4971757;28;124096;-60
2022/06/09 00:05:53;;;;;;;12.40;3.97;;;;;;;17.42;63.82;100752.13;4971702;28;114854;-60
2022/06/09 00:08:21;;;;;;;9.30;3.70;;;;;;;17.42;63.62;100752.13;4983820;28;113963;-60
2022/06/09 00:10:56;;;;;;;11.65;3.80;;;;;;;17.38;63.73;100756.03;4970718;28;124377;-61
2022/06/09 00:13:25;;;;;;;10.43;3.63;;;;;;;17.38;63.65;100761.38;4969990;28;123658;-61
2022/06/09 00:15:52;;;;;;;12.82;3.70;;;;;;;17.36;63.88;100758.81;4969894;28;114615;-61
2022/06/09 00:18:19;;;;;;;8.27;3.67;;;;;;;17.35;63.91;100756.25;4969668;28;114545;-61
2022/06/09 00:20:47;;;;;;;10.07;3.60;;;;;;;17.34;64.02;100765.25;4971289;28;124072;-61
2022/06/09 00:23:16;;;;;;;10.98;3.25;;;;;;;17.36;64.15;100757.97;4970368;28;123631;-61
2022/06/09 00:25:44;;;;;;;10.40;3.40;;;;;;;17.37;64.21;100765.03;4969645;28;114359;-61
2022/06/09 00:28:11;;;;;;;7.28;3.20;;;;;;;17.37;64.31;100760.53;4960279;28;113833;-61
2022/06/09 00:30:39;;;;;;;8.27;3.10;;;;;;;17.38;64.29;100764.06;4969660;28;124980;-61
2022/06/09 00:33:06;;;;;;;9.88;3.42;;;;;;;17.38;64.23;100758.69;4969391;28;123944;-62
2022/06/09 00:35:34;;;;;;;8.90;3.33;;;;;;;17.40;64.25;100762.13;4970018;28;115409;-62
2022/06/09 00:38:01;;;;;;;9.73;3.22;;;;;;;17.41;64.15;100758.47;4966527;28;113903;-61
2022/06/09 00:40:28;;;;;;;7.88;3.35;;;;;;;17.39;64.31;100763.94;4970864;28;124485;-61
2022/06/09 00:42:57;;;;;;;12.18;3.80;;;;;;;17.40;64.37;100764.78;4966687;28;124570;-61
2022/06/09 00:45:33;;;;;;;9.32;3.05;;;;;;;17.39;64.47;100763.94;4971149;28;113784;-61
2022/06/09 00:48:31;;;;;;;15.05;3.78;;;;;;;17.38;64.41;100762.22;4968729;28;114046;-62
2022/06/09 00:51:15;;;;;;;5.53;2.92;;;;;;;17.39;64.80;100757.75;4966804;28;123866;-62
2022/06/09 00:53:43;;;;;;;13.30;3.42;;;;;;;17.40;64.63;100770.16;4969072;28;122907;-62
2022/06/09 00:56:14;;;;;;;10.20;3.42;;;;;;;17.40;64.72;100770.16;4967979;28;116082;-62
2022/06/09 00:58:45;;;;;;;11.38;3.75;;;;;;;17.41;64.55;100766.50;4968220;28;115344;-61
2022/06/09 01:01:15;;;;;;;10.27;3.38;;;;;;;17.40;64.66;100765.63;4970368;28;124098;-62
2022/06/09 01:03:47;;;;;;;12.48;4.05;;;;;;;17.40;64.69;100759.44;4968214;28;123930;-62
2022/06/09 01:06:22;;;;;;;15.18;3.50;;;;;;;17.41;64.74;100766.50;4971643;28;114579;-62
2022/06/09 01:08:55;;;;;;;11.45;3.45;;;;;;;17.41;64.67;100761.16;4970809;28;113888;-62
2022/06/09 01:11:22;;;;;;;11.10;3.20;;;;;;;17.40;64.53;100770.16;4967199;28;124390;-62
2022/06/09 01:13:50;;;;;;;12.77;4.10;;;;;;;17.41;64.68;100771.88;4968217;28;123949;-61
2022/06/09 01:16:27;;;;;;;11.98;3.70;;;;;;;17.40;64.63;100771.00;4968948;28;113994;-62
2022/06/09 01:19:10;;;;;;;12.13;3.30;;;;;;;17.41;64.68;100771.88;4969549;28;114098;-62
2022/06/09 01:22:16;;;;;;;13.32;3.65;;;;;;;17.41;64.64;100777.22;4968822;28;124015;-62
2022/06/09 01:25:05;;;;;;;;;;;;;;;17.38;64.54;100764.06;4971323;28;123877;-62
2022/06/09 01:27:57;;;;;;;12.68;3.67;;;;;;;17.38;64.48;100769.41;4969212;28;114596;-62
2022/06/09 01:30:46;;;;;;;13.07;3.45;;;;;;;17.37;64.35;100770.41;4969304;28;114461;-62
2022/06/09 01:33:30;;;;;;;11.65;3.33;;;;;;;17.34;64.12;100770.63;4970296;28;124622;-62
2022/06/09 01:36:25;;;;;;;13.13;3.17;;;;;;;17.31;64.68;100772.56;4968493;28;123886;-63
2022/06/09 01:38:54;;;;;;;12.13;3.40;;;;;;;17.30;64.51;100781.53;4968092;28;114667;-61
2022/06/09 01:41:24;;;;;;;17.30;3.35;;;;;;;17.30;64.64;100781.53;4966946;28;113975;-62
2022/06/09 01:43:54;;;;;;;12.63;3.72;;;;;;;17.27;64.49;100792.50;4971151;28;124438;-61
2022/06/09 01:46:33;;;;;;;13.52;3.50;;;;;;;17.25;64.50;100789.06;4966507;28;124261;-61
2022/06/09 01:49:32;;;;;;;12.38;4.18;;;;;;;17.21;64.72;100792.91;4965150;28;115712;-61
2022/06/09 01:52:02;;;;;;;13.68;4.05;;;;;;;17.20;64.48;100796.59;4969923;28;114962;-61
2022/06/09 01:54:36;;;;;;;11.98;3.60;;;;;;;17.19;64.59;100800.22;4971243;28;125162;-61
2022/06/09 01:57:09;;;;;;;13.63;3.67;;;;;;;17.17;64.43;100810.19;4968173;28;123698;-61
2022/06/09 01:59:45;;;;;;;14.57;3.90;;;;;;;17.15;64.46;100803.25;4981731;28;114925;-61
2022/06/09 02:02:18;;;;;;;14.82;3.97;;;;;;;17.13;64.53;100806.03;4967694;28;114280;-61
2022/06/09 02:04:52;;;;;;;16.05;4.05;;;;;;;17.10;64.52;100811.59;4971063;28;124458;-62
2022/06/09 02:07:21;;;;;;;10.20;3.75;;;;;;;17.09;64.39;100804.53;4968566;28;124909;-61
2022/06/09 02:09:48;;;;;;;13.98;3.75;;;;;;;17.08;64.18;100818.88;4970884;28;114020;-61
2022/06/09 02:12:22;;;;;;;9.45;3.78;;;;;;;17.05;64.57;100821.81;4966923;28;114256;-61
2022/06/09 02:14:54;;;;;;;20.13;4.30;;;;;;;17.04;64.56;100823.59;4969840;28;124504;-61
2022/06/09 02:17:21;;;;;;;12.27;4.05;;;;;;;17.03;64.35;100821.91;4970771;28;123776;-61
2022/06/09 02:19:51;;;;;;;13.95;4.10;;;;;;;17.02;64.52;100824.69;4967785;28;114417;-61
2022/06/09 02:22:18;;;;;;;13.23;3.90;;;;;;;17.01;64.55;100822.97;4964575;28;114734;-61
2022/06/09 02:24:45;;;;;;;19.67;4.65;;;;;;;17.00;64.48;100837.31;4965800;28;124843;-61
2022/06/09 02:27:14;;;;;;;12.20;3.92;;;;;;;16.99;64.60;100840.94;4968114;28;123684;-61
2022/06/09 02:29:41;;;;;;;19.35;4.57;;;;;;;16.98;64.68;100841.94;4969295;28;114495;-61
2022/06/09 02:32:08;;;;;;;14.95;4.65;;;;;;;16.96;64.51;100841.19;4967994;28;114029;-61
2022/06/09 02:34:35;;;;;;;17.58;4.30;;;;;;;16.93;64.57;100843.13;4986066;28;123006;-61
2022/06/09 02:37:02;;;;;;;18.58;4.65;;;;;;;16.93;64.52;100853.81;4969223;28;124035;-61
2022/06/09 02:39:30;;;;;;;16.65;4.38;;;;;;;16.93;64.70;100853.81;4966980;28;115570;-61
2022/06/09 02:41:57;;;;;;;13.40;4.32;;;;;;;16.92;64.61;100851.25;4970498;28;115603;-61
2022/06/09 02:44:24;;;;;;;12.35;4.50;;;;;;;16.91;64.67;100853.09;4969857;28;124318;-61
2022/06/09 02:46:51;;;;;;;15.00;4.90;;;;;;;16.92;64.97;100859.28;4970315;28;124045;-61
2022/06/09 02:49:18;;;;;;;20.50;5.60;;;;;;;16.91;64.76;100861.09;4968531;28;114344;-61
2022/06/09 02:51:45;;;;;;;16.20;5.32;;;;;;;16.91;64.87;100861.09;4966984;28;114295;-62
2022/06/09 02:54:13;;;;;;;17.67;4.85;;;;;;;16.91;64.97;100870.94;4965969;28;124676;-61
2022/06/09 02:56:42;;;;;;;13.07;4.50;;;;;;;16.92;65.01;100861.94;4962758;28;123522;-61
2022/06/09 02:59:10;;;;;;;16.77;5.30;;;;;;;16.90;64.98;100864.75;4972855;28;113333;-61
2022/06/09 03:01:38;;;;;;;16.70;5.22;;;;;;;16.91;64.89;100866.47;4968155;28;113942;-61
2022/06/09 03:04:07;;;;;;;16.23;4.95;;;;;;;16.91;65.04;100866.47;4968078;28;123999;-62
2022/06/09 03:06:34;;;;;;;16.55;5.00;;;;;;;16.91;65.13;100866.47;4969149;28;124272;-61
2022/06/09 03:09:03;;;;;;;19.33;4.78;;;;;;;16.93;65.04;100869.00;4965759;28;114428;-61
2022/06/09 03:11:30;;;;;;;19.90;5.93;;;;;;;16.95;65.06;100877.78;4969483;28;114828;-61
2022/06/09 03:13:57;;;;;;;19.52;4.85;;;;;;;16.98;65.16;100879.38;4965256;28;124308;-61
2022/06/09 03:16:24;;;;;;;13.95;4.78;;;;;;;16.98;65.05;100871.38;4966408;28;125047;-61
2022/06/09 03:18:51;;;;;;;18.98;5.03;;;;;;;17.01;64.97;100887.19;4963885;28;113418;-62
2022/06/09 03:21:18;;;;;;;17.30;5.22;;;;;;;17.02;65.01;100883.56;4966399;28;114980;-62
2022/06/09 03:23:46;;;;;;;18.55;5.00;;;;;;;17.03;65.04;100890.63;4964397;28;124063;-61
2022/06/09 03:26:13;;;;;;;15.20;5.03;;;;;;;17.05;65.05;100899.41;4969996;28;124597;-61
2022/06/09 03:28:41;;;;;;;17.00;5.30;;;;;;;17.06;65.17;100901.09;4981552;28;114839;-62
2022/06/09 03:31:08;;;;;;;12.27;5.20;;;;;;;17.06;65.03;100901.09;4967327;28;115024;-62
2022/06/09 03:33:35;;;;;;;18.33;5.15;;;;;;;17.05;65.14;100910.09;4967447;28;124066;-61
2022/06/09 03:36:03;;;;;;;14.60;5.30;;;;;;;17.05;65.23;100910.09;4965412;28;124586;-61
2022/06/09 03:38:34;;;;;;;14.27;4.85;;;;;;;17.07;65.38;100924.22;4969463;28;114421;-62
2022/06/09 03:41:01;;;;;;;12.32;4.85;;;;;;;17.07;65.18;100921.56;4966832;28;114307;-61
2022/06/09 03:43:28;;;;;;;19.30;5.10;;;;;;;17.06;65.20;100923.34;4965584;28;123818;-62
2022/06/09 03:45:56;;;;;;;14.27;4.85;;;;;;;17.08;65.36;100920.56;4970631;28;124649;-62
2022/06/09 03:48:23;;;;;;;11.70;5.03;;;;;;;17.11;65.23;100933.75;4966897;28;114060;-61
2022/06/09 03:50:50;;;;;;;14.00;5.35;;;;;;;17.13;65.39;100929.13;4966712;28;113175;-61
2022/06/09 03:53:17;;;;;;;18.65;5.53;;;;;;;17.15;65.33;100937.91;4966509;28;123920;-61
2022/06/09 03:55:44;;;;;;;14.70;5.07;;;;;;;17.17;65.11;100946.69;4967084;28;123859;-61
2022/06/09 03:58:12;;;;;;;15.18;5.50;;;;;;;17.17;65.24;100944.00;4965817;28;114576;-61
2022/06/09 04:00:39;;;;;;;18.30;5.78;;;;;;;17.19;65.44;100951.94;4968704;28;114404;-61
2022/06/09 04:03:06;;;;;;;16.00;6.10;;;;;;;17.20;65.34;100946.47;4982783;28;123073;-62
2022/06/09 04:05:36;;;;;;;21.45;6.05;;;;;;;17.22;65.29;100954.41;4968091;28;124471;-61
2022/06/09 04:08:03;;;;;;;20.55;5.85;;;;;;;17.23;65.21;100951.59;4965849;28;114277;-62
2022/06/09 04:10:33;;;;;;;17.95;5.25;;;;;;;17.25;65.23;100949.69;4970292;28;114893;-61
2022/06/09 04:13:00;;;;;;;16.73;5.47;;;;;;;17.27;65.27;100957.56;4967788;28;124071;-62
2022/06/09 04:15:29;;;;;;;17.67;5.35;;;;;;;17.29;65.25;100955.66;4966477;28;124621;-61
2022/06/09 04:17:56;;;;;;;17.73;5.45;;;;;;;17.29;65.23;100961.88;4980946;28;114248;-62
2022/06/09 04:20:25;;;;;;;17.83;5.65;;;;;;;17.29;65.27;100967.22;4967733;28;113898;-61
2022/06/09 04:22:53;;;;;;;21.05;5.90;;;;;;;17.30;65.19;100963.56;4969453;28;124213;-62
2022/06/09 04:25:21;;;;;;;15.93;6.10;;;;;;;17.35;65.19;100962.38;4970862;28;125817;-62
2022/06/09 04:27:49;;;;;;;18.63;6.72;;;;;;;17.37;65.27;100969.34;4970737;28;114378;-61
2022/06/09 04:30:17;;;;;;;16.95;5.60;;;;;;;17.40;65.32;100973.63;4955237;28;112969;-61
2022/06/09 04:32:52;;;;;;;19.13;5.93;;;;;;;17.42;65.34;100971.69;4972719;28;124169;-62
2022/06/09 04:35:20;;;;;;;14.05;5.97;;;;;;;17.45;65.24;100976.84;4969370;28;123984;-60
2022/06/09 04:38:03;;;;;;;16.63;6.03;;;;;;;17.46;65.29;100973.19;4969657;28;114484;-62
2022/06/09 04:40:37;;;;;;;20.35;6.18;;;;;;;17.48;65.33;100981.97;4969387;28;113969;-62
2022/06/09 04:43:08;;;;;;;15.50;6.18;;;;;;;17.51;65.23;100989.78;4969625;28;124198;-62
2022/06/09 04:45:38;;;;;;;17.13;6.03;;;;;;;17.55;65.39;100982.38;4968967;28;124297;-62
2022/06/09 04:48:07;;;;;;;16.25;6.40;;;;;;;17.58;65.44;100983.03;4969242;28;114524;-63
2022/06/09 04:50:34;;;;;;;16.67;6.10;;;;;;;17.63;65.47;100991.59;4970213;28;114678;-63
2022/06/09 04:53:02;;;;;;;20.88;6.47;;;;;;;17.67;65.42;100990.38;4969015;28;123218;-63
2022/06/09 04:55:30;;;;;;;18.08;5.75;;;;;;;17.73;65.48;100986.41;4969097;28;123863;-63
2022/06/09 04:57:58;;;;;;;14.80;6.15;;;;;;;17.78;65.50;100988.75;4969960;28;114369;-63
2022/06/09 05:00:26;;;;;;;20.35;6.45;;;;;;;17.82;65.35;101001.81;4981996;28;113033;-63
2022/06/09 05:02:55;;;;;;;16.15;5.20;;;;;;;17.86;65.05;101002.47;4969509;28;124023;-64
2022/06/09 05:05:27;;;;;;;22.27;5.78;;;;;;;17.87;64.92;101001.50;4967013;28;124025;-61
2022/06/09 05:07:54;;;;;;;18.80;5.65;;;;;;;17.89;64.94;101002.22;4967691;28;115627;-62
2022/06/09 05:10:22;;;;;;;16.15;5.88;;;;;;;17.92;64.91;101012.75;4971734;28;114071;-62
2022/06/09 05:12:49;;;;;;;16.33;5.60;;;;;;;17.92;64.76;101012.75;4969309;28;124673;-62
2022/06/09 05:15:19;;;;;;;19.40;5.75;;;;;;;17.90;64.67;101020.03;4968748;28;124585;-62
2022/06/09 05:17:49;;;;;;;16.85;5.88;;;;;;;17.91;64.70;101027.09;4968152;28;115201;-62
2022/06/09 05:20:21;;;;;;;15.73;6.13;;;;;;;17.92;64.51;101028.81;4969882;28;114450;-62
2022/06/09 05:22:48;;;;;;;16.52;5.47;;;;;;;17.92;64.57;101039.53;4968567;28;124081;-62
2022/06/09 05:25:16;;;;;;;14.75;5.82;;;;;;;17.92;64.69;101039.53;4969520;28;124761;-62
2022/06/09 05:27:44;;;;;;;18.60;6.03;;;;;;;17.93;64.57;101046.59;4965798;28;114647;-62
2022/06/09 05:30:18;;;;;;;19.10;5.43;;;;;;;17.97;64.53;101048.09;4972138;28;113807;-62
2022/06/09 05:32:46;;;;;;;17.33;5.60;;;;;;;18.00;64.58;101053.22;4950696;28;123895;-63
2022/06/09 05:35:13;;;;;;;22.55;5.88;;;;;;;17.99;64.31;101059.56;4971756;28;123910;-63
2022/06/09 05:46:02;;;;;;;14.13;6.43;;;;;;;18.04;64.42;101073.47;4966978;28;123808;-63
2022/06/09 05:48:31;;;;;;;14.52;6.20;;;;;;;18.08;64.63;101083.03;4974568;22;114616;-62
2022/06/09 05:51:00;;;;;;;16.50;6.38;;;;;;;18.15;64.50;101078.06;4971268;28;113544;-63
2022/06/09 05:53:28;;;;;;;14.35;6.45;;;;;;;18.21;64.46;101076.75;4970659;28;123274;-63
2022/06/09 05:55:55;;;;;;;16.98;6.38;;;;;;;18.25;64.64;101091.63;4973067;28;124294;-62
2022/06/09 05:58:23;;;;;;;15.07;6.28;;;;;;;18.32;64.51;101095.59;4967824;28;114404;-63
2022/06/09 06:00:51;;;;;;;17.73;5.95;;;;;;;18.38;64.54;101105.84;4969289;28;114459;-64
2022/06/09 06:03:19;;;;;;;16.50;6.53;;;;;;;18.43;64.56;101109.06;4953460;28;122660;-63
2022/06/09 06:08:32;;;;;;;12.57;5.80;;;;;;;18.56;64.32;101118.88;4966165;28;114479;-64
2022/06/09 06:10:59;;;;;;;15.73;5.82;;;;;;;18.64;64.23;101111.13;4966785;28;114715;-62
2022/06/09 06:13:27;;;;;;;15.02;5.57;;;;;;;18.72;64.24;101108.69;4964971;28;124122;-63
2022/06/09 06:15:55;;;;;;;11.80;5.10;;;;;;;18.80;64.19;101117.09;4970470;28;123382;-64
2022/06/09 06:18:30;;;;;;;9.00;4.63;;;;;;;18.89;64.21;101125.41;4968193;28;115460;-63
2022/06/09 06:20:58;;;;;;;16.60;5.40;;;;;;;18.98;63.86;101124.69;4969426;28;114442;-64
2022/06/09 06:23:26;;;;;;;12.63;4.95;;;;;;;19.06;63.72;101128.53;4969402;28;123670;-62
2022/06/09 06:25:55;;;;;;;15.48;4.95;;;;;;;19.18;64.05;101132.09;4968772;28;123863;-63
2022/06/09 06:28:24;;;;;;;15.77;5.85;;;;;;;19.35;63.99;101129.94;4968676;28;114430;-63
2022/06/09 06:30:57;;;;;;;13.98;5.78;;;;;;;19.49;63.89;101129.69;4968212;28;114007;-63
2022/06/09 06:33:25;;;;;;;15.38;5.50;;;;;;;19.62;63.61;101137.66;4968386;28;124482;-64
2022/06/09 06:35:55;;;;;;;13.35;4.95;;;;;;;19.71;63.23;101139.63;4968687;28;122676;-63
2022/06/09 06:41:14;;;;;;;12.00;4.80;;;;;;;19.83;62.98;101148.56;4294394;22;98667;-64
2022/06/09 06:43:44;;;;;;;11.88;5.00;;;;;;;19.94;63.10;101156.66;4928049;28;124555;-64
2022/06/09 06:46:12;;;;;;;15.25;5.07;;;;;;;20.06;62.79;101153.94;4921650;28;122835;-64
2022/06/09 06:48:39;;;;;;;10.40;4.18;;;;;;;20.20;62.67;101161.78;4919308;28;113994;-64
2022/06/09 06:51:06;;;;;;;10.73;4.30;;;;;;;20.36;62.81;101164.94;4949562;28;113941;-64
2022/06/09 06:53:35;;;;;;;8.10;3.35;;;;;;;20.50;62.47;101168.34;4950710;28;124253;-64
2022/06/09 06:56:03;;;;;;;9.48;3.00;;;;;;;20.56;61.64;101167.81;4945882;28;124134;-64
2022/06/09 06:58:31;;;;;;;7.35;2.97;;;;;;;20.55;61.39;101177.75;4947349;28;114247;-64
2022/06/09 07:00:59;;;;;;;6.57;2.70;;;;;;;20.54;61.15;101185.94;4945993;28;114050;-64
2022/06/09 07:03:29;;;;;;;9.45;3.05;;;;;;;20.54;61.02;101186.78;4947138;28;124548;-64
2022/06/09 07:06:02;;;;;;;7.90;2.63;;;;;;;20.52;60.83;101198.66;4950577;28;124637;-64
2022/06/09 07:08:30;;;;;;;6.00;2.33;;;;;;;20.55;61.03;101199.28;4947703;28;114344;-64
2022/06/09 07:10:57;;;;;;;6.10;2.60;;;;;;;20.62;60.59;101202.34;4947316;28;114567;-64
2022/06/09 07:13:24;;;;;;;8.23;2.60;;;;;;;20.64;60.79;101197.69;4947707;28;124652;-64
2022/06/09 07:15:52;;;;;;;8.95;2.83;;;;;;;20.66;60.79;101206.47;4949632;28;123717;-63
2022/06/09 07:18:27;;;;;;;6.27;2.57;;;;;;;20.69;60.47;101208.09;4945135;28;114281;-63
2022/06/09 07:20:54;;;;;;;7.07;2.35;;;;;;;20.69;60.50;101210.78;4950930;28;115681;-64
2022/06/09 07:23:22;;;;;;;5.45;2.08;;;;;;;20.69;60.26;101211.63;4948751;28;124134;-63
2022/06/09 07:25:50;;;;;;;4.68;1.70;;;;;;;20.70;59.85;101213.34;4949559;28;122793;-63
2022/06/09 07:28:17;;;;;;;5.70;1.85;;;;;;;20.64;59.49;101219.22;4947950;28;114089;-63
2022/06/09 07:30:45;;;;;;;4.63;1.95;;;;;;;20.61;59.44;101230.25;4947435;28;114358;-63
2022/06/09 07:33:13;;;;;;;2.80;1.40;;;;;;;20.58;59.48;101222.38;4948014;28;126288;-64
2022/06/09 07:35:40;;;;;;;3.25;1.40;;;;;;;20.54;58.97;101234.38;4947511;28;123743;-64
2022/06/09 07:38:10;;;;;;;4.00;1.35;;;;;;;20.49;59.13;101236.56;4944162;28;115940;-64
2022/06/09 07:40:40;;;;;;;2.83;1.40;;;;;;;20.43;59.24;101238.78;4942430;28;115058;-64
2022/06/09 07:43:08;;;;;;;2.67;1.65;;;;;;;20.43;59.56;101238.78;4951207;28;124066;-64
2022/06/09 07:45:38;;;;;;;3.15;1.95;;;;;;;20.43;59.49;101244.16;4950821;28;124661;-64
2022/06/09 07:48:06;;;;;;;3.67;1.75;;;;;;;20.40;59.45;101244.41;4948627;28;113261;-64
2022/06/09 07:50:40;;;;;;;6.25;2.25;;;;;;;20.37;59.42;101250.03;4939947;28;113718;-64
2022/06/09 07:53:07;;;;;;;2.95;2.08;;;;;;;20.35;59.44;101252.00;4949297;28;124643;-64
2022/06/09 07:55:35;;;;;;;3.85;1.83;;;;;;;20.34;59.68;101250.31;4951893;28;124301;-64
2022/06/09 07:58:06;;;;;;;4.55;1.70;;;;;;;20.33;59.23;101253.97;4950877;28;114203;-64
2022/06/09 08:00:34;;;;;;;5.03;2.03;;;;;;;20.30;59.18;101264.94;4942364;28;113800;-64
2022/06/09 08:03:03;;;;;;;6.38;1.80;;;;;;;20.26;59.03;101252.72;4951362;28;124444;-64
2022/06/09 08:05:31;;;;;;;2.60;1.60;;;;;;;20.22;59.27;101267.41;4951070;28;123877;-64
2022/06/09 08:07:59;;;;;;;4.07;1.70;;;;;;;20.21;59.17;101255.78;4951992;28;114305;-64
2022/06/09 08:10:29;;;;;;;3.10;1.80;;;;;;;20.23;59.13;101263.75;4953983;28;113860;-64
2022/06/09 08:12:58;;;;;;;4.40;1.95;;;;;;;20.27;59.26;101264.34;4937419;28;123901;-64
2022/06/09 08:15:33;;;;;;;3.38;1.60;;;;;;;20.36;59.20;101267.19;4951270;28;124195;-64
2022/06/09 08:18:01;;;;;;;4.45;1.80;;;;;;;20.47;59.57;101270.81;4941675;28;116118;-64
2022/06/09 08:20:31;;;;;;;3.25;1.80;;;;;;;20.57;59.21;101271.81;4964618;28;113314;-64
2022/06/09 08:23:21;;;;;;;2.63;1.50;;;;;;;20.64;59.08;101270.34;4947533;28;124014;-64
2022/06/09 08:25:50;;;;;;;3.45;1.55;;;;;;;20.75;58.87;101274.88;4952050;28;124151;-64
2022/06/09 08:28:18;;;;;;;1.60;1.17;;;;;;;20.85;58.77;101275.84;4950222;28;115739;-64
2022/06/09 08:30:47;;;;;;;2.28;0.98;;;;;;;20.98;58.65;101276.56;4939623;28;115003;-64
2022/06/09 08:33:14;;;;;;;2.55;1.00;;;;;;;21.11;58.35;101281.75;4953779;28;124371;-64
2022/06/09 08:35:42;;;;;;;1.98;1.00;;;;;;;21.24;58.34;101286.13;4953240;28;124369;-64
2022/06/09 08:38:09;;;;;;;1.55;0.93;;;;;;;21.41;57.68;101288.28;4950509;28;114682;-64
2022/06/09 08:40:58;;;;;;;1.40;0.88;;;;;;;21.57;57.78;101288.72;4951998;28;113635;-64
2022/06/09 08:43:34;;;;;;;2.33;0.93;;;;;;;21.73;57.35;101292.81;4953143;28;124838;-64
2022/06/09 08:46:13;;;;;;;1.30;0.82;;;;;;;21.84;56.93;101306.22;4953686;28;123893;-64
2022/06/09 08:48:45;;;;;;;1.88;0.82;;;;;;;21.94;56.60;101301.78;4951332;28;114194;-64
2022/06/09 08:51:21;;;;;;;1.90;0.80;;;;;;;22.04;56.28;101300.97;4951115;28;113786;-64
2022/06/09 08:53:53;;;;;;;1.45;0.70;;;;;;;22.14;55.91;101301.88;4950455;28;124983;-64
2022/06/09 08:56:27;;;;;;;1.35;0.65;;;;;;;22.23;55.42;101311.88;4952606;28;124222;-64
2022/06/09 08:59:02;;;;;;;2.88;1.20;;;;;;;22.30;55.33;101310.41;4953447;28;114275;-64
2022/06/09 09:01:38;;;;;;;2.83;1.40;;;;;;;22.38;55.18;101314.25;4951046;28;113791;-64
2022/06/09 09:04:31;;;;;;;3.83;1.45;;;;;;;22.42;55.37;101329.22;4950487;28;124054;-65
2022/06/09 09:07:25;;;;;;;1.60;1.40;;;;;;;22.47;55.59;101324.25;4938616;28;126263;-64
2022/06/09 09:10:00;;;;;;;3.08;1.30;;;;;;;22.60;55.51;101324.88;4951992;28;114803;-64
2022/06/09 09:12:49;;;;;;;2.00;1.52;;;;;;;22.70;55.30;101325.78;4953061;28;114511;-64
2022/06/09 09:15:24;;;;;;;2.75;1.40;;;;;;;22.77;54.76;101341.41;4950220;28;124808;-63
2022/06/09 09:18:22;;;;;;;2.47;1.20;;;;;;;22.81;54.63;101332.03;4950271;28;124643;-63
2022/06/09 09:20:58;;;;;;;1.67;1.23;;;;;;;22.90;54.63;101342.03;4940774;28;115147;-64
2022/06/09 09:24:13;;;;;;;2.05;1.20;;;;;;;23.01;54.67;101344.63;4952714;28;114677;-63
2022/06/09 09:27:02;;;;;;;2.40;0.93;;;;;;;23.06;53.60;101358.63;4933697;28;125308;-64
2022/06/09 09:29:46;;;;;;;2.00;0.70;;;;;;;23.08;53.17;101356.63;4941124;28;124025;-63
2022/06/09 09:32:24;;;;;;;1.13;0.73;;;;;;;23.12;52.49;101363.47;4950730;28;114211;-63
2022/06/09 09:34:53;;;;;;;1.58;0.82;;;;;;;23.10;52.52;101368.16;4950604;28;113742;-63
2022/06/09 09:37:40;;;;;;;2.00;0.80;;;;;;;23.08;52.60;101367.44;4949830;28;124698;-63
2022/06/09 09:40:23;;;;;;;0.95;0.80;;;;;;;23.07;52.10;101368.41;4951616;28;124202;-63
2022/06/09 09:42:54;;;;;;;2.47;0.90;;;;;;;23.07;52.02;101371.13;4950139;28;114000;-63
2022/06/09 09:45:31;;;;;;;3.10;1.08;;;;;;;23.09;52.34;101369.16;4943950;28;113779;-63
2022/06/09 09:48:02;;;;;;;2.58;0.70;;;;;;;23.17;52.10;101381.09;4942894;28;124124;-64
2022/06/09 09:50:59;;;;;;;1.35;0.80;;;;;;;23.23;52.06;101381.41;4945840;28;125329;-63
2022/06/09 09:53:45;;;;;;;2.28;0.90;;;;;;;23.32;52.56;101391.41;4950000;28;114350;-64
2022/06/09 09:56:15;;;;;;;2.92;1.20;;;;;;;23.42;52.28;101375.19;4951260;28;113961;-63
2022/06/09 09:58:48;;;;;;;3.00;1.17;;;;;;;23.49;52.54;101386.31;4949400;28;124816;-63
2022/06/09 10:01:25;;;;;;;2.42;1.08;;;;;;;23.63;52.19;101394.00;4948207;28;123901;-63
2022/06/09 10:10:26;;;;;;;3.03;1.50;;;;;;;23.81;51.08;101405.00;4948955;28;124623;-63
2022/06/09 10:13:16;;;;;;;4.35;1.50;;;;;;;23.78;50.91;101407.97;4939687;28;122768;-63
2022/06/09 10:15:43;;;;;;;3.58;1.40;;;;;;;23.78;51.45;101413.38;4951720;28;115270;-64
2022/06/09 10:18:20;;;;;;;3.90;1.60;;;;;;;23.86;51.19;101405.41;4948622;28;115248;-63
2022/06/09 10:21:11;;;;;;;4.20;1.58;;;;;;;23.93;50.62;101404.88;4939331;28;123903;-63
2022/06/09 10:24:05;;;;;;;4.75;1.67;;;;;;;23.96;50.69;101409.97;4951780;28;123952;-64
2022/06/09 10:26:47;;;;;;;3.90;1.60;;;;;;;24.01;50.86;101405.00;4949869;28;114735;-63
2022/06/09 10:29:33;;;;;;;3.20;1.70;;;;;;;24.07;51.11;101409.84;4937055;28;114178;-63
2022/06/09 10:32:14;;;;;;;3.15;1.85;;;;;;;24.16;50.95;101405.41;4947566;28;123851;-63
2022/06/09 10:34:56;;;;;;;6.65;1.63;;;;;;;24.24;50.69;101406.41;4945107;28;123743;-63
2022/06/09 10:38:02;;;;;;;3.50;1.60;;;;;;;24.29;50.51;101417.66;4949221;28;114273;-63
2022/06/09 10:40:45;;;;;;;4.20;1.98;;;;;;;24.28;49.93;101415.09;4952696;28;113775;-63
2022/06/09 10:43:28;;;;;;;4.47;1.80;;;;;;;24.15;49.74;101415.41;4943155;28;123781;-63
2022/06/09 10:46:13;;;;;;;4.00;2.00;;;;;;;24.03;49.25;101428.22;4944452;28;123719;-64
2022/06/09 10:57:34;;;;;;;3.75;2.30;;;;;;;23.73;49.90;101436.44;4948796;28;124309;-63
2022/06/09 11:00:14;;;;;;;3.80;1.80;;;;;;;23.75;50.32;101435.28;4938876;28;114299;-63
2022/06/09 11:02:49;;;;;;;6.53;2.28;;;;;;;23.83;50.25;101438.19;4949287;28;114017;-63
2022/06/09 11:05:21;;;;;;;4.90;2.22;;;;;;;23.95;49.97;101435.34;4949415;28;125168;-63
2022/06/09 11:08:09;;;;;;;4.28;1.88;;;;;;;24.03;50.24;101432.78;4947343;28;123749;-63
2022/06/09 11:10:45;;;;;;;3.50;2.30;;;;;;;24.13;50.20;101422.81;4943747;28;115382;-63
2022/06/09 11:13:28;;;;;;;8.60;2.70;;;;;;;24.20;49.98;101429.34;4944493;28;114516;-64
2022/06/09 11:16:04;;;;;;;7.40;2.65;;;;;;;24.33;50.76;101425.50;4944114;28;124472;-63
2022/06/09 11:19:02;;;;;;;4.93;2.20;;;;;;;24.49;50.47;101434.72;4949688;28;124026;-63
2022/06/09 11:21:51;;;;;;;4.22;2.30;;;;;;;24.62;49.84;101434.44;4949984;28;114372;-63
2022/06/09 11:24:46;;;;;;;3.80;2.50;;;;;;;24.70;49.33;101427.44;4946541;28;114136;-63
2022/06/09 11:27:34;;;;;;;6.63;2.33;;;;;;;24.79;48.94;101429.25;4940658;28;124802;-64
2022/06/09 11:30:12;;;;;;;5.63;2.33;;;;;;;24.89;48.78;101435.50;4945712;28;123934;-63
2022/06/09 11:32:55;;;;;;;7.05;2.58;;;;;;;24.94;48.79;101427.78;4942840;28;114616;-64
2022/06/09 11:36:00;;;;;;;4.65;2.50;;;;;;;24.97;48.48;101432.88;4949044;28;114352;-64
2022/06/09 11:38:43;;;;;;;4.80;2.30;;;;;;;25.04;48.83;101444.84;4953191;28;124862;-65
2022/06/09 11:41:32;;;;;;;5.43;2.53;;;;;;;25.06;48.15;101448.25;4951845;28;123772;-65
2022/06/09 11:44:27;;;;;;;5.85;1.70;;;;;;;24.98;47.45;101450.03;4951798;28;114300;-65
2022/06/09 11:46:59;;;;;;;4.30;1.30;;;;;;;24.81;46.67;101462.50;4954122;28;113849;-65
2022/06/09 11:49:36;;;;;;;3.55;1.50;;;;;;;24.61;46.37;101470.66;4947336;28;124017;-65
2022/06/09 11:52:21;;;;;;;7.93;1.70;;;;;;;24.41;46.48;101474.34;4947635;28;124208;-64
2022/06/09 11:54:48;;;;;;;3.58;2.03;;;;;;;24.24;46.93;101474.09;4943103;28;114530;-64
2022/06/09 11:57:15;;;;;;;4.78;1.85;;;;;;;24.12;47.10;101480.63;4951187;28;113498;-64
2022/06/09 11:59:57;;;;;;;4.45;1.80;;;;;;;24.01;47.52;101480.78;4945283;28;124898;-64
2022/06/09 12:02:36;;;;;;;2.53;1.33;;;;;;;23.92;47.17;101481.63;4948667;28;124408;-64
2022/06/09 12:05:28;;;;;;;5.97;1.52;;;;;;;23.79;47.20;101474.63;4950639;28;115280;-64
2022/06/09 12:08:23;;;;;;;4.10;1.60;;;;;;;23.71;47.15;101482.53;4947862;28;114819;-64
2022/06/09 12:11:23;;;;;;;3.67;1.55;;;;;;;23.56;47.34;101494.75;4942033;28;124427;-64